sensor_id;sensor_type;location;lat;lon;timestamp;pressure;altitude;pressure_sealevel;temperature;humidity
65880;BME280;52661;51.364;6.054;2022-09-03T00:01:56;100772.72;;;17.56;51.80
65880;BME280;52661;51.364;6.054;2022-09-03T00:04:48;100780.22;;;17.40;52.62
65880;BME280;52661;51.364;6.054;2022-09-03T00:07:44;100771.44;;;17.45;52.24
65880;BME280;52661;51.364;6.054;2022-09-03T00:10:10;100777.38;;;17.43;51.75
65880;BME280;52661;51.364;6.054;2022-09-03T00:12:41;100777.59;;;17.49;51.55
65880;BME280;52661;51.364;6.054;2022-09-03T00:15:11;100779.38;;;17.55;51.51
65880;BME280;52661;51.364;6.054;2022-09-03T00:20:25;100772.72;;;17.56;51.21
65880;BME280;52661;51.364;6.054;2022-09-03T00:22:57;100772.72;;;17.56;51.50
65880;BME280;52661;51.364;6.054;2022-09-03T00:25:37;100771.03;;;17.46;51.47
65880;BME280;52661;51.364;6.054;2022-09-03T00:28:10;100771.31;;;17.64;50.81
65880;BME280;52661;51.364;6.054;2022-09-03T00:30:37;100765.44;;;17.50;51.32
65880;BME280;52661;51.364;6.054;2022-09-03T00:33:17;100763.06;;;17.36;51.33
65880;BME280;52661;51.364;6.054;2022-09-03T00:36:09;100768.38;;;17.43;51.54
65880;BME280;52661;51.364;6.054;2022-09-03T00:38:36;100772.00;;;17.52;51.23
65880;BME280;52661;51.364;6.054;2022-09-03T01:00:13;100783.09;;;17.49;51.10
65880;BME280;52661;51.364;6.054;2022-09-03T01:05:42;100774.66;;;17.56;50.75
65880;BME280;52661;51.364;6.054;2022-09-03T01:11:17;100776.88;;;17.32;51.64
65880;BME280;52661;51.364;6.054;2022-09-03T01:13:53;100768.47;;;17.39;51.30
65880;BME280;52661;51.364;6.054;2022-09-03T01:16:34;100777.31;;;17.31;51.40
65880;BME280;52661;51.364;6.054;2022-09-03T01:19:38;100773.84;;;17.43;51.08
65880;BME280;52661;51.364;6.054;2022-09-03T01:27:36;100783.31;;;17.26;51.27
65880;BME280;52661;51.364;6.054;2022-09-03T01:30:10;100780.09;;;17.14;52.38
65880;BME280;52661;51.364;6.054;2022-09-03T01:36:00;100767.91;;;17.15;51.88
65880;BME280;52661;51.364;6.054;2022-09-03T01:41:37;100780.63;;;17.09;51.56
65880;BME280;52661;51.364;6.054;2022-09-03T01:47:16;100773.31;;;17.19;51.49
65880;BME280;52661;51.364;6.054;2022-09-03T01:52:54;100769.50;;;17.29;50.40
65880;BME280;52661;51.364;6.054;2022-09-03T01:55:57;100772.09;;;17.20;50.82
65880;BME280;52661;51.364;6.054;2022-09-03T01:58:38;100772.28;;;17.13;51.47
65880;BME280;52661;51.364;6.054;2022-09-03T02:01:13;100779.41;;;17.10;51.47
65880;BME280;52661;51.364;6.054;2022-09-03T02:03:42;100778.38;;;17.04;51.83
65880;BME280;52661;51.364;6.054;2022-09-03T02:06:10;100778.19;;;17.11;51.37
65880;BME280;52661;51.364;6.054;2022-09-03T02:08:36;100771.63;;;17.09;51.58
65880;BME280;52661;51.364;6.054;2022-09-03T02:11:04;100773.94;;;17.10;50.92
65880;BME280;52661;51.364;6.054;2022-09-03T02:13:41;100770.25;;;17.01;51.48
65880;BME280;52661;51.364;6.054;2022-09-03T02:16:30;100766.31;;;17.02;52.05
65880;BME280;52661;51.364;6.054;2022-09-03T02:19:16;100776.50;;;17.01;51.78
65880;BME280;52661;51.364;6.054;2022-09-03T02:21:48;100767.94;;;16.99;52.24
65880;BME280;52661;51.364;6.054;2022-09-03T02:24:14;100767.59;;;16.97;51.84
65880;BME280;52661;51.364;6.054;2022-09-03T02:26:39;100761.97;;;16.88;52.06
65880;BME280;52661;51.364;6.054;2022-09-03T02:29:05;100769.75;;;16.90;52.39
65880;BME280;52661;51.364;6.054;2022-09-03T02:31:30;100766.66;;;16.88;52.04
65880;BME280;52661;51.364;6.054;2022-09-03T02:33:56;100767.09;;;16.86;52.01
65880;BME280;52661;51.364;6.054;2022-09-03T02:36:31;100766.31;;;16.86;52.19
65880;BME280;52661;51.364;6.054;2022-09-03T02:38:58;100767.88;;;16.87;51.76
65880;BME280;52661;51.364;6.054;2022-09-03T02:41:23;100762.75;;;16.89;51.62
65880;BME280;52661;51.364;6.054;2022-09-03T02:44:19;100763.16;;;16.87;51.91
65880;BME280;52661;51.364;6.054;2022-09-03T02:46:56;100762.41;;;16.70;53.21
65880;BME280;52661;51.364;6.054;2022-09-03T02:49:21;100765.66;;;16.82;52.19
65880;BME280;52661;51.364;6.054;2022-09-03T02:51:47;100770.09;;;16.76;52.57
65880;BME280;52661;51.364;6.054;2022-09-03T02:54:12;100767.88;;;16.70;52.50
65880;BME280;52661;51.364;6.054;2022-09-03T02:56:38;100756.66;;;16.65;53.28
65880;BME280;52661;51.364;6.054;2022-09-03T02:59:04;100752.56;;;16.73;52.26
65880;BME280;52661;51.364;6.054;2022-09-03T03:01:31;100759.75;;;16.67;52.82
65880;BME280;52661;51.364;6.054;2022-09-03T03:03:56;100757.28;;;16.56;52.94
65880;BME280;52661;51.364;6.054;2022-09-03T03:06:22;100768.97;;;16.57;53.62
65880;BME280;52661;51.364;6.054;2022-09-03T03:08:48;100766.28;;;16.53;52.87
65880;BME280;52661;51.364;6.054;2022-09-03T03:11:16;100765.78;;;16.42;53.77
65880;BME280;52661;51.364;6.054;2022-09-03T03:13:43;100760.06;;;16.53;53.01
65880;BME280;52661;51.364;6.054;2022-09-03T03:16:09;100760.72;;;16.41;53.51
65880;BME280;52661;51.364;6.054;2022-09-03T03:18:35;100755.75;;;16.36;53.77
65880;BME280;52661;51.364;6.054;2022-09-03T03:21:05;100756.88;;;16.38;54.32
65880;BME280;52661;51.364;6.054;2022-09-03T03:23:31;100755.59;;;16.43;53.38
65880;BME280;52661;51.364;6.054;2022-09-03T03:26:09;100754.47;;;16.40;53.84
65880;BME280;52661;51.364;6.054;2022-09-03T03:28:35;100761.94;;;16.40;53.63
65880;BME280;52661;51.364;6.054;2022-09-03T03:31:20;100759.19;;;16.40;53.94
65880;BME280;52661;51.364;6.054;2022-09-03T03:33:54;100751.41;;;16.38;53.38
65880;BME280;52661;51.364;6.054;2022-09-03T03:36:20;100757.91;;;16.44;53.89
65880;BME280;52661;51.364;6.054;2022-09-03T03:38:46;100760.13;;;16.33;53.79
65880;BME280;52661;51.364;6.054;2022-09-03T03:41:18;100766.22;;;16.41;53.61
65880;BME280;52661;51.364;6.054;2022-09-03T03:43:46;100762.69;;;16.40;54.42
65880;BME280;52661;51.364;6.054;2022-09-03T03:46:12;100760.81;;;16.37;53.88
65880;BME280;52661;51.364;6.054;2022-09-03T03:48:39;100757.88;;;16.28;54.96
65880;BME280;52661;51.364;6.054;2022-09-03T03:51:07;100760.38;;;16.22;54.78
65880;BME280;52661;51.364;6.054;2022-09-03T03:53:35;100756.34;;;16.27;54.23
65880;BME280;52661;51.364;6.054;2022-09-03T03:56:04;100753.78;;;16.20;54.49
65880;BME280;52661;51.364;6.054;2022-09-03T03:58:31;100750.59;;;16.21;54.62
65880;BME280;52661;51.364;6.054;2022-09-03T04:03:34;100749.66;;;16.28;54.69
65880;BME280;52661;51.364;6.054;2022-09-03T04:05:59;100755.13;;;16.28;54.26
65880;BME280;52661;51.364;6.054;2022-09-03T04:08:26;100747.38;;;16.27;54.56
65880;BME280;52661;51.364;6.054;2022-09-03T04:10:52;100752.84;;;16.27;54.40
65880;BME280;52661;51.364;6.054;2022-09-03T04:13:17;100749.91;;;16.17;54.97
65880;BME280;52661;51.364;6.054;2022-09-03T04:15:43;100747.16;;;16.17;54.56
65880;BME280;52661;51.364;6.054;2022-09-03T04:18:09;100753.09;;;16.16;55.10
65880;BME280;52661;51.364;6.054;2022-09-03T04:20:37;100752.72;;;16.14;55.25
65880;BME280;52661;51.364;6.054;2022-09-03T04:23:03;100748.88;;;16.11;54.86
65880;BME280;52661;51.364;6.054;2022-09-03T04:25:28;100745.72;;;16.13;55.57
65880;BME280;52661;51.364;6.054;2022-09-03T04:27:54;100744.88;;;16.16;54.93
65880;BME280;52661;51.364;6.054;2022-09-03T04:30:19;100744.19;;;16.12;55.88
65880;BME280;52661;51.364;6.054;2022-09-03T04:32:45;100747.31;;;16.10;55.25
65880;BME280;52661;51.364;6.054;2022-09-03T04:35:24;100746.28;;;16.04;55.56
65880;BME280;52661;51.364;6.054;2022-09-03T04:37:50;100749.03;;;16.04;55.81
65880;BME280;52661;51.364;6.054;2022-09-03T04:40:16;100746.28;;;16.04;55.68
65880;BME280;52661;51.364;6.054;2022-09-03T04:42:41;100746.72;;;16.03;55.94
65880;BME280;52661;51.364;6.054;2022-09-03T04:45:07;100755.63;;;16.07;55.64
65880;BME280;52661;51.364;6.054;2022-09-03T04:47:33;100753.56;;;15.95;56.19
65880;BME280;52661;51.364;6.054;2022-09-03T04:49:59;100752.34;;;15.96;56.31
65880;BME280;52661;51.364;6.054;2022-09-03T04:52:24;100753.81;;;16.00;55.85
65880;BME280;52661;51.364;6.054;2022-09-03T04:54:55;100753.81;;;16.00;56.13
65880;BME280;52661;51.364;6.054;2022-09-03T04:57:20;100743.34;;;15.95;56.86
65880;BME280;52661;51.364;6.054;2022-09-03T04:59:47;100751.06;;;16.00;55.68
65880;BME280;52661;51.364;6.054;2022-09-03T05:02:12;100757.09;;;16.11;56.20
65880;BME280;52661;51.364;6.054;2022-09-03T05:04:40;100760.69;;;16.08;56.06
65880;BME280;52661;51.364;6.054;2022-09-03T05:07:05;100754.44;;;16.08;56.02
65880;BME280;52661;51.364;6.054;2022-09-03T05:09:30;100758.03;;;16.05;56.27
65880;BME280;52661;51.364;6.054;2022-09-03T05:11:56;100748.97;;;16.08;56.28
65880;BME280;52661;51.364;6.054;2022-09-03T05:14:21;100751.28;;;16.09;55.97
65880;BME280;52661;51.364;6.054;2022-09-03T05:16:47;100758.66;;;16.12;56.21
65880;BME280;52661;51.364;6.054;2022-09-03T05:19:12;100756.75;;;16.09;56.82
65880;BME280;52661;51.364;6.054;2022-09-03T05:21:37;100748.47;;;16.13;56.49
65880;BME280;52661;51.364;6.054;2022-09-03T05:24:03;100752.31;;;16.15;55.78
65880;BME280;52661;51.364;6.054;2022-09-03T05:26:31;100758.03;;;16.21;55.73
65880;BME280;52661;51.364;6.054;2022-09-03T05:29:00;100761.84;;;16.27;55.84
65880;BME280;52661;51.364;6.054;2022-09-03T05:31:27;100763.09;;;16.22;56.46
65880;BME280;52661;51.364;6.054;2022-09-03T05:33:56;100760.97;;;16.30;55.86
65880;BME280;52661;51.364;6.054;2022-09-03T05:36:23;100768.41;;;16.30;56.04
65880;BME280;52661;51.364;6.054;2022-09-03T05:38:50;100764.34;;;16.38;55.68
65880;BME280;52661;51.364;6.054;2022-09-03T05:41:18;100768.94;;;16.41;55.98
65880;BME280;52661;51.364;6.054;2022-09-03T05:43:51;100762.97;;;16.46;55.97
65880;BME280;52661;51.364;6.054;2022-09-03T05:46:19;100756.63;;;16.49;55.82
65880;BME280;52661;51.364;6.054;2022-09-03T05:48:44;100762.38;;;16.54;56.47
65880;BME280;52661;51.364;6.054;2022-09-03T05:51:12;100763.50;;;16.57;56.32
65880;BME280;52661;51.364;6.054;2022-09-03T05:53:41;100766.66;;;16.55;55.97
65880;BME280;52661;51.364;6.054;2022-09-03T05:56:09;100762.50;;;16.67;55.82
65880;BME280;52661;51.364;6.054;2022-09-03T05:58:38;100761.19;;;16.71;55.44
65880;BME280;52661;51.364;6.054;2022-09-03T06:01:28;100762.91;;;16.82;55.13
65880;BME280;52661;51.364;6.054;2022-09-03T06:04:04;100758.44;;;16.88;55.08
65880;BME280;52661;51.364;6.054;2022-09-03T06:06:32;100760.16;;;16.98;55.29
65880;BME280;52661;51.364;6.054;2022-09-03T06:09:06;100767.50;;;17.01;54.60
65880;BME280;52661;51.364;6.054;2022-09-03T06:11:33;100761.84;;;17.08;54.46
65880;BME280;52661;51.364;6.054;2022-09-03T06:14:01;100767.03;;;17.18;55.79
65880;BME280;52661;51.364;6.054;2022-09-03T06:16:30;100769.28;;;17.23;54.64
65880;BME280;52661;51.364;6.054;2022-09-03T06:18:56;100770.28;;;17.30;54.63
65880;BME280;52661;51.364;6.054;2022-09-03T06:21:22;100765.03;;;17.35;54.37
65880;BME280;52661;51.364;6.054;2022-09-03T06:23:55;100772.50;;;17.35;54.41
65880;BME280;52661;51.364;6.054;2022-09-03T06:26:22;100769.66;;;17.38;54.30
65880;BME280;52661;51.364;6.054;2022-09-03T06:28:48;100766.59;;;17.36;54.63
65880;BME280;52661;51.364;6.054;2022-09-03T06:31:15;100768.78;;;17.41;53.73
65880;BME280;52661;51.364;6.054;2022-09-03T06:33:42;100769.69;;;17.51;55.39
65880;BME280;52661;51.364;6.054;2022-09-03T06:36:13;100774.00;;;17.52;54.12
65880;BME280;52661;51.364;6.054;2022-09-03T06:38:39;100774.00;;;17.52;53.51
65880;BME280;52661;51.364;6.054;2022-09-03T06:41:15;100770.91;;;17.50;54.24
65880;BME280;52661;51.364;6.054;2022-09-03T06:43:45;100771.88;;;17.43;54.19
65880;BME280;52661;51.364;6.054;2022-09-03T06:46:15;100767.50;;;17.46;53.77
65880;BME280;52661;51.364;6.054;2022-09-03T06:48:41;100769.78;;;17.47;54.25
65880;BME280;52661;51.364;6.054;2022-09-03T06:51:12;100768.59;;;17.64;54.82
65880;BME280;52661;51.364;6.054;2022-09-03T06:53:41;100767.72;;;17.67;53.67
65880;BME280;52661;51.364;6.054;2022-09-03T06:56:13;100773.31;;;17.77;54.02
65880;BME280;52661;51.364;6.054;2022-09-03T06:58:44;100770.38;;;17.84;53.86
65880;BME280;52661;51.364;6.054;2022-09-03T07:01:12;100772.69;;;17.85;53.36
65880;BME280;52661;51.364;6.054;2022-09-03T07:03:39;100776.31;;;17.95;54.11
65880;BME280;52661;51.364;6.054;2022-09-03T07:06:25;100778.44;;;18.03;54.01
65880;BME280;52661;51.364;6.054;2022-09-03T07:08:51;100776.34;;;18.07;53.10
65880;BME280;52661;51.364;6.054;2022-09-03T07:11:19;100778.53;;;18.12;52.95
65880;BME280;52661;51.364;6.054;2022-09-03T07:13:48;100771.63;;;18.20;52.97
65880;BME280;52661;51.364;6.054;2022-09-03T07:16:19;100783.72;;;18.36;54.83
65880;BME280;52661;51.364;6.054;2022-09-03T07:18:45;100788.03;;;18.37;52.15
65880;BME280;52661;51.364;6.054;2022-09-03T07:21:16;100780.56;;;18.37;53.89
65880;BME280;52661;51.364;6.054;2022-09-03T07:23:43;100780.31;;;18.44;53.65
65880;BME280;52661;51.364;6.054;2022-09-03T07:26:12;100782.31;;;18.56;53.97
65880;BME280;52661;51.364;6.054;2022-09-03T07:28:39;100779.13;;;18.58;52.48
65880;BME280;52661;51.364;6.054;2022-09-03T07:31:25;100775.94;;;18.59;52.93
65880;BME280;52661;51.364;6.054;2022-09-03T07:33:59;100776.03;;;18.56;52.30
65880;BME280;52661;51.364;6.054;2022-09-03T07:36:27;100777.03;;;18.62;52.63
65880;BME280;52661;51.364;6.054;2022-09-03T07:38:57;100781.09;;;18.70;53.75
65880;BME280;52661;51.364;6.054;2022-09-03T07:41:24;100777.00;;;18.87;52.63
65880;BME280;52661;51.364;6.054;2022-09-03T07:43:50;100785.22;;;19.00;52.27
65880;BME280;52661;51.364;6.054;2022-09-03T07:46:20;100770.22;;;19.13;50.81
65880;BME280;52661;51.364;6.054;2022-09-03T07:48:56;100772.38;;;19.18;51.15
65880;BME280;52661;51.364;6.054;2022-09-03T07:51:26;100767.53;;;19.23;51.15
65880;BME280;52661;51.364;6.054;2022-09-03T07:53:54;100772.91;;;19.26;51.30
65880;BME280;52661;51.364;6.054;2022-09-03T07:56:20;100776.19;;;19.34;51.47
65880;BME280;52661;51.364;6.054;2022-09-03T07:58:46;100769.78;;;19.49;50.95
65880;BME280;52661;51.364;6.054;2022-09-03T08:01:14;100772.56;;;19.58;51.21
65880;BME280;52661;51.364;6.054;2022-09-03T08:03:45;100774.03;;;19.50;49.46
65880;BME280;52661;51.364;6.054;2022-09-03T08:06:11;100766.91;;;19.53;50.18
65880;BME280;52661;51.364;6.054;2022-09-03T08:08:36;100775.66;;;19.60;50.67
65880;BME280;52661;51.364;6.054;2022-09-03T08:11:13;100776.91;;;19.69;50.14
65880;BME280;52661;51.364;6.054;2022-09-03T08:13:40;100769.16;;;19.76;49.45
65880;BME280;52661;51.364;6.054;2022-09-03T08:16:07;100780.13;;;19.89;50.02
65880;BME280;52661;51.364;6.054;2022-09-03T08:18:34;100786.53;;;19.86;49.05
65880;BME280;52661;51.364;6.054;2022-09-03T08:21:13;100788.56;;;19.94;49.61
65880;BME280;52661;51.364;6.054;2022-09-03T08:23:47;100795.06;;;20.09;49.95
65880;BME280;52661;51.364;6.054;2022-09-03T08:26:14;100789.94;;;20.21;48.94
65880;BME280;52661;51.364;6.054;2022-09-03T08:28:40;100794.09;;;20.25;48.40
65880;BME280;52661;51.364;6.054;2022-09-03T08:33:41;100795.19;;;20.28;48.85
65880;BME280;52661;51.364;6.054;2022-09-03T08:36:19;100793.84;;;20.32;50.07
65880;BME280;52661;51.364;6.054;2022-09-03T08:38:47;100800.50;;;20.53;48.98
65880;BME280;52661;51.364;6.054;2022-09-03T08:49:55;100798.88;;;20.74;48.81
65880;BME280;52661;51.364;6.054;2022-09-03T08:52:44;100811.00;;;20.76;49.09
65880;BME280;52661;51.364;6.054;2022-09-03T08:57:46;100805.94;;;20.75;47.44
65880;BME280;52661;51.364;6.054;2022-09-03T09:00:13;100795.38;;;20.82;48.59
65880;BME280;52661;51.364;6.054;2022-09-03T09:02:51;100808.88;;;20.89;48.82
65880;BME280;52661;51.364;6.054;2022-09-03T09:05:26;100802.19;;;21.08;50.63
65880;BME280;52661;51.364;6.054;2022-09-03T09:10:43;100808.81;;;21.29;48.49
65880;BME280;52661;51.364;6.054;2022-09-03T09:13:19;100811.88;;;21.31;48.75
65880;BME280;52661;51.364;6.054;2022-09-03T09:20:53;100804.19;;;21.35;48.95
65880;BME280;52661;51.364;6.054;2022-09-03T09:23:30;100800.97;;;21.46;48.24
65880;BME280;52661;51.364;6.054;2022-09-03T09:25:59;100803.91;;;21.70;49.14
65880;BME280;52661;51.364;6.054;2022-09-03T09:28:34;100807.56;;;21.94;49.01
65880;BME280;52661;51.364;6.054;2022-09-03T09:31:02;100806.78;;;21.84;47.50
65880;BME280;52661;51.364;6.054;2022-09-03T09:33:29;100804.78;;;21.76;48.23
65880;BME280;52661;51.364;6.054;2022-09-03T09:35:58;100803.09;;;21.96;46.96
65880;BME280;52661;51.364;6.054;2022-09-03T09:38:32;100802.75;;;22.03;45.31
65880;BME280;52661;51.364;6.054;2022-09-03T09:41:12;100794.78;;;22.05;48.54
65880;BME280;52661;51.364;6.054;2022-09-03T09:43:39;100809.50;;;22.12;49.06
65880;BME280;52661;51.364;6.054;2022-09-03T09:46:19;100805.19;;;22.20;47.94
65880;BME280;52661;51.364;6.054;2022-09-03T09:51:27;100803.16;;;22.29;47.25
65880;BME280;52661;51.364;6.054;2022-09-03T09:54:01;100799.69;;;22.43;46.14
65880;BME280;52661;51.364;6.054;2022-09-03T09:56:27;100801.88;;;22.39;46.92
65880;BME280;52661;51.364;6.054;2022-09-03T09:59:07;100802.44;;;22.52;47.96
65880;BME280;52661;51.364;6.054;2022-09-03T10:01:33;100808.09;;;22.58;44.70
65880;BME280;52661;51.364;6.054;2022-09-03T10:06:34;100803.41;;;22.40;45.20
65880;BME280;52661;51.364;6.054;2022-09-03T10:09:20;100797.44;;;22.75;46.49
65880;BME280;52661;51.364;6.054;2022-09-03T10:14:48;100800.97;;;22.75;43.09
65880;BME280;52661;51.364;6.054;2022-09-03T10:17:18;100800.66;;;22.73;45.59
65880;BME280;52661;51.364;6.054;2022-09-03T10:20:08;100793.13;;;22.97;46.60
65880;BME280;52661;51.364;6.054;2022-09-03T10:22:55;100796.59;;;22.83;44.99
65880;BME280;52661;51.364;6.054;2022-09-03T10:25:24;100801.44;;;22.97;44.72
65880;BME280;52661;51.364;6.054;2022-09-03T10:27:51;100800.44;;;22.86;43.50
65880;BME280;52661;51.364;6.054;2022-09-03T10:30:18;100803.09;;;23.04;45.28
65880;BME280;52661;51.364;6.054;2022-09-03T10:33:09;100799.44;;;22.98;44.14
65880;BME280;52661;51.364;6.054;2022-09-03T10:35:45;100803.16;;;22.95;45.11
65880;BME280;52661;51.364;6.054;2022-09-03T10:38:28;100795.34;;;23.08;46.18
65880;BME280;52661;51.364;6.054;2022-09-03T10:46:21;100791.81;;;23.31;47.22
65880;BME280;52661;51.364;6.054;2022-09-03T10:49:14;100802.38;;;23.57;45.65
65880;BME280;52661;51.364;6.054;2022-09-03T10:52:11;100789.97;;;23.52;45.13
65880;BME280;52661;51.364;6.054;2022-09-03T10:54:50;100792.75;;;23.81;46.01
65880;BME280;52661;51.364;6.054;2022-09-03T10:57:50;100794.38;;;23.88;46.43
65880;BME280;52661;51.364;6.054;2022-09-03T11:00:18;100789.13;;;23.61;43.51
65880;BME280;52661;51.364;6.054;2022-09-03T11:05:23;100786.06;;;23.88;46.12
65880;BME280;52661;51.364;6.054;2022-09-03T11:08:00;100789.91;;;23.90;44.79
65880;BME280;52661;51.364;6.054;2022-09-03T11:10:32;100795.72;;;23.78;43.59
65880;BME280;52661;51.364;6.054;2022-09-03T11:13:17;100791.78;;;23.55;44.20
65880;BME280;52661;51.364;6.054;2022-09-03T11:15:51;100788.56;;;23.33;45.83
65880;BME280;52661;51.364;6.054;2022-09-03T11:18:31;100784.69;;;23.16;45.54
65880;BME280;52661;51.364;6.054;2022-09-03T11:21:04;100792.41;;;23.12;47.82
65880;BME280;52661;51.364;6.054;2022-09-03T11:23:33;100792.06;;;23.19;45.33
65880;BME280;52661;51.364;6.054;2022-09-03T11:26:05;100784.22;;;23.17;43.47
65880;BME280;52661;51.364;6.054;2022-09-03T11:31:54;100786.75;;;23.68;45.50
65880;BME280;52661;51.364;6.054;2022-09-03T11:34:29;100783.66;;;23.95;45.01
65880;BME280;52661;51.364;6.054;2022-09-03T11:39:38;100774.75;;;24.35;47.71
65880;BME280;52661;51.364;6.054;2022-09-03T11:42:10;100766.44;;;24.35;45.42
65880;BME280;52661;51.364;6.054;2022-09-03T11:44:37;100767.34;;;24.47;46.34
65880;BME280;52661;51.364;6.054;2022-09-03T11:47:15;100753.38;;;24.56;43.10
65880;BME280;52661;51.364;6.054;2022-09-03T11:49:51;100767.25;;;24.76;45.63
65880;BME280;52661;51.364;6.054;2022-09-03T11:52:27;100762.25;;;24.80;42.77
65880;BME280;52661;51.364;6.054;2022-09-03T11:54:53;100760.63;;;24.88;44.83
65880;BME280;52661;51.364;6.054;2022-09-03T11:57:26;100752.25;;;25.03;45.07
65880;BME280;52661;51.364;6.054;2022-09-03T11:59:53;100761.31;;;25.04;42.28
65880;BME280;52661;51.364;6.054;2022-09-03T12:02:26;100756.38;;;25.13;42.94
65880;BME280;52661;51.364;6.054;2022-09-03T12:13:32;100756.22;;;25.22;43.56
65880;BME280;52661;51.364;6.054;2022-09-03T12:16:24;100752.69;;;25.22;42.37
65880;BME280;52661;51.364;6.054;2022-09-03T12:18:55;100755.16;;;25.40;43.50
65880;BME280;52661;51.364;6.054;2022-09-03T12:21:25;100754.59;;;25.56;43.33
65880;BME280;52661;51.364;6.054;2022-09-03T12:23:51;100756.31;;;25.79;43.60
65880;BME280;52661;51.364;6.054;2022-09-03T12:26:24;100746.72;;;25.80;46.26
65880;BME280;52661;51.364;6.054;2022-09-03T12:28:53;100760.28;;;25.73;41.47
65880;BME280;52661;51.364;6.054;2022-09-03T12:34:09;100764.59;;;25.74;42.40
65880;BME280;52661;51.364;6.054;2022-09-03T12:36:41;100748.28;;;25.87;43.16
65880;BME280;52661;51.364;6.054;2022-09-03T12:39:12;100749.94;;;26.05;43.92
65880;BME280;52661;51.364;6.054;2022-09-03T12:42:04;100752.66;;;25.93;42.78
65880;BME280;52661;51.364;6.054;2022-09-03T12:47:18;100756.72;;;25.98;42.81
65880;BME280;52661;51.364;6.054;2022-09-03T12:49:47;100743.00;;;26.20;43.79
65880;BME280;52661;51.364;6.054;2022-09-03T12:52:32;100753.66;;;26.22;44.62
65880;BME280;52661;51.364;6.054;2022-09-03T12:57:34;100742.59;;;26.33;44.04
65880;BME280;52661;51.364;6.054;2022-09-03T13:00:08;100754.19;;;26.74;40.35
65880;BME280;52661;51.364;6.054;2022-09-03T13:05:21;100744.75;;;26.60;41.61
65880;BME280;52661;51.364;6.054;2022-09-03T13:07:54;100750.84;;;26.59;42.79
65880;BME280;52661;51.364;6.054;2022-09-03T13:10:26;100739.19;;;26.55;44.06
65880;BME280;52661;51.364;6.054;2022-09-03T13:12:58;100743.50;;;26.61;44.69
65880;BME280;52661;51.364;6.054;2022-09-03T13:15:24;100746.28;;;26.61;43.38
65880;BME280;52661;51.364;6.054;2022-09-03T13:18:18;100743.53;;;26.67;44.28
65880;BME280;52661;51.364;6.054;2022-09-03T13:21:23;100744.56;;;26.75;41.93
65880;BME280;52661;51.364;6.054;2022-09-03T13:24:13;100739.72;;;26.70;40.86
65880;BME280;52661;51.364;6.054;2022-09-03T13:26:54;100749.13;;;26.72;40.38
65880;BME280;52661;51.364;6.054;2022-09-03T13:35:28;100754.00;;;26.83;41.93
65880;BME280;52661;51.364;6.054;2022-09-03T13:38:22;100751.34;;;27.16;39.58
65880;BME280;52661;51.364;6.054;2022-09-03T13:40:59;100745.25;;;27.18;39.88
65880;BME280;52661;51.364;6.054;2022-09-03T13:46:15;100747.53;;;26.55;42.49
65880;BME280;52661;51.364;6.054;2022-09-03T13:48:43;100742.53;;;26.22;42.11
65880;BME280;52661;51.364;6.054;2022-09-03T13:51:38;100736.72;;;25.63;42.05
65880;BME280;52661;51.364;6.054;2022-09-03T13:57:03;100741.91;;;25.29;44.56
65880;BME280;52661;51.364;6.054;2022-09-03T14:05:35;100746.03;;;25.14;44.79
65880;BME280;52661;51.364;6.054;2022-09-03T14:08:08;100745.63;;;25.01;44.50
65880;BME280;52661;51.364;6.054;2022-09-03T14:19:20;100751.88;;;26.24;41.28
65880;BME280;52661;51.364;6.054;2022-09-03T14:22:00;100747.53;;;26.55;40.13
65880;BME280;52661;51.364;6.054;2022-09-03T14:27:22;100747.94;;;26.84;39.63
65880;BME280;52661;51.364;6.054;2022-09-03T14:29:53;100748.47;;;26.40;41.38
65880;BME280;52661;51.364;6.054;2022-09-03T14:33:11;100748.47;;;26.40;42.76
65880;BME280;52661;51.364;6.054;2022-09-03T14:40:48;100749.47;;;26.43;41.44
65880;BME280;52661;51.364;6.054;2022-09-03T14:46:14;100745.56;;;26.24;42.46
65880;BME280;52661;51.364;6.054;2022-09-03T15:00:17;100752.50;;;26.08;41.54
65880;BME280;52661;51.364;6.054;2022-09-03T15:10:49;100742.66;;;26.13;41.66
65880;BME280;52661;51.364;6.054;2022-09-03T15:13:41;100744.44;;;26.16;43.58
65880;BME280;52661;51.364;6.054;2022-09-03T15:16:17;100745.09;;;26.00;43.42
65880;BME280;52661;51.364;6.054;2022-09-03T15:19:13;100738.53;;;25.97;43.90
65880;BME280;52661;51.364;6.054;2022-09-03T15:21:45;100746.63;;;26.01;43.24
65880;BME280;52661;51.364;6.054;2022-09-03T15:24:42;100751.44;;;26.31;41.58
65880;BME280;52661;51.364;6.054;2022-09-03T15:27:28;100747.63;;;26.29;41.67
65880;BME280;52661;51.364;6.054;2022-09-03T15:30:04;100748.97;;;26.44;40.73
65880;BME280;52661;51.364;6.054;2022-09-03T15:33:11;100752.78;;;26.47;40.63
65880;BME280;52661;51.364;6.054;2022-09-03T15:41:45;100749.41;;;26.32;41.64
65880;BME280;52661;51.364;6.054;2022-09-03T15:44:15;100754.50;;;26.39;42.45
65880;BME280;52661;51.364;6.054;2022-09-03T15:49:29;100751.25;;;26.40;41.51
65880;BME280;52661;51.364;6.054;2022-09-03T15:52:09;100756.72;;;25.98;43.99
65880;BME280;52661;51.364;6.054;2022-09-03T15:55:10;100755.19;;;25.66;44.09
65880;BME280;52661;51.364;6.054;2022-09-03T16:00:30;100751.06;;;25.35;44.24
65880;BME280;52661;51.364;6.054;2022-09-03T16:03:10;100749.69;;;25.25;45.92
65880;BME280;52661;51.364;6.054;2022-09-03T16:05:44;100756.38;;;25.13;46.65
65880;BME280;52661;51.364;6.054;2022-09-03T16:11:39;100762.19;;;25.87;44.60
65880;BME280;52661;51.364;6.054;2022-09-03T16:14:20;100759.16;;;25.85;44.12
65880;BME280;52661;51.364;6.054;2022-09-03T16:17:04;100761.78;;;25.68;43.59
65880;BME280;52661;51.364;6.054;2022-09-03T16:19:43;100761.50;;;25.66;42.96
65880;BME280;52661;51.364;6.054;2022-09-03T16:22:31;100760.16;;;25.56;43.89